Time;durP1;ratioP1;P1;durP2;ratioP2;P2;SDS_P1;SDS_P2;PMS_P1;PMS_P2;Temp;Humidity;BMP_temperature;BMP_pressure;BME280_temperature;BME280_humidity;BME280_pressure;Samples;Min_cycle;Max_cycle;Signal;HPM_P1;HPM_P2
2023/07/10 00:02:23;;;;;;;7.93;3.03;;;;;;;28.95;46.40;101731.41;4940827;29;20035;-65
2023/07/10 00:04:48;;;;;;;4.07;2.92;;;;;;;28.94;46.37;101735.25;4956863;28;20043;-65
2023/07/10 00:07:14;;;;;;;5.95;2.92;;;;;;;28.93;46.04;101739.06;4956750;28;20036;-65
2023/07/10 00:09:39;;;;;;;6.97;3.30;;;;;;;28.92;46.79;101740.16;4941237;29;20530;-64
2023/07/10 00:12:05;;;;;;;9.32;3.00;;;;;;;28.90;45.84;101739.53;4958094;28;20110;-65
2023/07/10 00:14:33;;;;;;;9.95;2.95;;;;;;;28.85;46.32;101728.34;4924436;28;20039;-66
2023/07/10 00:16:59;;;;;;;4.75;2.40;;;;;;;28.82;45.64;101721.34;4958100;28;20118;-64
2023/07/10 00:19:24;;;;;;;5.68;2.78;;;;;;;28.76;45.48;101718.66;4956742;28;20114;-64
2023/07/10 00:21:50;;;;;;;5.57;2.42;;;;;;;28.73;46.31;101732.91;4956686;28;20027;-64
2023/07/10 00:24:16;;;;;;;7.38;2.30;;;;;;;28.69;46.47;101721.50;4940280;28;20035;-65
2023/07/10 00:26:42;;;;;;;3.17;2.17;;;;;;;28.64;45.40;101728.75;4956253;28;20035;-65
2023/07/10 00:29:15;;;;;;;5.82;2.13;;;;;;;28.61;46.39;101720.91;4957612;28;20035;-64
2023/07/10 00:31:41;;;;;;;5.75;1.90;;;;;;;28.61;45.78;101726.41;4972532;28;20435;-64
2023/07/10 00:34:14;;;;;;;3.97;2.28;;;;;;;28.56;45.94;101720.75;4956111;28;20035;-64
2023/07/10 00:36:40;;;;;;;6.07;2.63;;;;;;;28.55;45.78;101730.06;4957537;28;20106;-64
2023/07/10 00:39:14;;;;;;;5.90;2.25;;;;;;;28.52;45.12;101731.38;4956893;28;20039;-64
2023/07/10 00:41:40;;;;;;;5.30;2.58;;;;;;;28.47;45.57;101733.97;4957149;28;20035;-64
2023/07/10 00:44:06;;;;;;;5.22;2.35;;;;;;;28.49;46.09;101740.09;4956254;28;20051;-65
2023/07/10 00:46:44;;;;;;;3.95;2.05;;;;;;;28.48;46.17;101734.78;4940160;29;20533;-65
2023/07/10 00:49:23;;;;;;;6.22;1.92;;;;;;;28.43;45.52;101737.38;4957091;28;20038;-64
2023/07/10 00:52:14;;;;;;;4.78;2.72;;;;;;;28.44;44.99;101736.31;4955834;28;20055;-65
2023/07/10 00:54:43;;;;;;;5.97;2.40;;;;;;;28.40;45.00;101733.16;4957199;28;20036;-65
2023/07/10 00:57:24;;;;;;;4.43;1.88;;;;;;;28.42;45.63;101742.03;4939665;29;20121;-65
2023/07/10 00:59:51;;;;;;;8.80;2.97;;;;;;;28.41;46.07;101747.78;4936049;29;20514;-65
2023/07/10 01:02:19;;;;;;;7.28;2.03;;;;;;;28.39;45.27;101738.91;4956910;28;20061;-65
2023/07/10 01:04:48;;;;;;;4.43;2.08;;;;;;;28.39;45.60;101734.25;4955711;28;20407;-65
2023/07/10 01:07:16;;;;;;;4.68;2.20;;;;;;;28.35;45.17;101715.59;4939917;28;20109;-65
2023/07/10 01:09:44;;;;;;;5.70;2.03;;;;;;;28.35;45.85;101712.84;4955591;28;20031;-65
2023/07/10 01:12:10;;;;;;;5.13;1.83;;;;;;;28.34;45.98;101722.22;4955485;28;20039;-65
2023/07/10 01:14:36;;;;;;;3.40;1.95;;;;;;;28.33;44.87;101737.03;4958747;28;20051;-64
2023/07/10 01:17:06;;;;;;;3.60;1.92;;;;;;;28.29;45.42;101748.50;4958138;28;20517;-65
2023/07/10 01:19:33;;;;;;;4.65;1.83;;;;;;;28.27;45.60;101739.63;4959067;28;20047;-64
2023/07/10 01:21:59;;;;;;;4.57;2.20;;;;;;;28.25;44.76;101758.28;4958767;28;20028;-65
2023/07/10 01:24:24;;;;;;;4.15;2.10;;;;;;;28.23;45.78;101759.56;4958896;28;20058;-65
2023/07/10 01:26:51;;;;;;;4.40;2.00;;;;;;;28.20;45.52;101760.88;4959599;28;20510;-64
2023/07/10 01:29:42;;;;;;;10.30;2.70;;;;;;;28.20;45.36;101763.63;4942787;29;20031;-65
2023/07/10 01:32:09;;;;;;;5.00;1.95;;;;;;;28.17;45.01;101771.47;4958100;28;20035;-65
2023/07/10 01:34:38;;;;;;;9.57;2.28;;;;;;;28.12;45.48;101752.88;4957160;28;20032;-64
2023/07/10 01:37:05;;;;;;;5.22;2.33;;;;;;;28.10;45.50;101749.50;4971754;28;20031;-65
2023/07/10 01:39:41;;;;;;;7.65;2.38;;;;;;;28.09;45.34;101744.19;4971669;28;20031;-65
2023/07/10 01:42:07;;;;;;;6.07;2.40;;;;;;;28.08;45.18;101753.53;4955616;28;20031;-65
2023/07/10 01:44:38;;;;;;;4.43;2.10;;;;;;;28.07;44.94;101754.59;4955489;28;20035;-65
2023/07/10 01:47:07;;;;;;;9.55;2.70;;;;;;;28.05;45.16;101754.84;4971690;28;20078;-65
2023/07/10 01:49:39;;;;;;;6.25;2.20;;;;;;;28.05;44.59;101763.09;4954793;28;20383;-65
2023/07/10 01:52:07;;;;;;;6.80;2.00;;;;;;;27.97;45.02;101760.56;4956148;28;20047;-65
2023/07/10 01:54:33;;;;;;;9.80;2.20;;;;;;;28.01;44.84;101770.06;4973328;28;20087;-64
2023/07/10 01:56:58;;;;;;;4.28;2.60;;;;;;;27.99;45.56;101772.22;4956372;28;20450;-63
2023/07/10 01:59:24;;;;;;;6.25;2.70;;;;;;;27.99;44.73;101780.47;4969089;28;20158;-63
2023/07/10 02:01:50;;;;;;;9.82;3.03;;;;;;;27.98;45.42;101783.44;4947991;28;20148;-63
2023/07/10 02:04:15;;;;;;;7.32;3.38;;;;;;;27.93;45.82;101781.34;4948070;28;20410;-63
2023/07/10 02:06:40;;;;;;;6.22;3.67;;;;;;;27.91;45.64;101782.66;4950955;29;20118;-63
2023/07/10 02:09:06;;;;;;;10.50;3.83;;;;;;;27.88;45.01;101772.06;4949449;28;20403;-63
2023/07/10 02:11:34;;;;;;;11.68;3.28;;;;;;;27.87;45.84;101782.22;4943799;28;20384;-63
2023/07/10 02:14:04;;;;;;;5.68;3.25;;;;;;;27.84;45.52;101779.91;4955463;28;20047;-63
2023/07/10 02:16:30;;;;;;;6.35;3.00;;;;;;;27.83;45.81;101781.00;4935911;28;20043;-63
2023/07/10 02:18:55;;;;;;;5.25;3.25;;;;;;;27.83;45.12;101778.25;4946346;28;20415;-63
2023/07/10 02:21:21;;;;;;;13.05;3.53;;;;;;;27.80;45.16;101783.34;4918554;29;20020;-63
2023/07/10 02:23:49;;;;;;;5.03;2.95;;;;;;;27.78;45.08;101780.78;4917629;29;20044;-63
2023/07/10 02:26:16;;;;;;;12.82;3.78;;;;;;;27.74;45.20;101796.06;4964407;28;20028;-63
2023/07/10 02:28:41;;;;;;;6.10;2.85;;;;;;;27.71;45.74;101791.84;4935236;28;20036;-63
2023/07/10 02:31:07;;;;;;;6.35;3.40;;;;;;;27.69;45.58;101793.13;4966769;28;20039;-63
2023/07/10 02:33:33;;;;;;;8.07;3.67;;;;;;;27.66;45.66;101790.81;4934937;28;20122;-63
2023/07/10 02:35:59;;;;;;;11.88;3.70;;;;;;;27.64;45.35;101801.19;4934847;28;20031;-63
2023/07/10 02:38:24;;;;;;;9.25;3.40;;;;;;;27.62;46.14;101803.31;4966782;28;20399;-63
2023/07/10 02:40:49;;;;;;;10.07;3.78;;;;;;;27.57;45.79;101794.88;4934693;28;20035;-63
2023/07/10 02:43:15;;;;;;;10.05;3.47;;;;;;;27.54;45.92;101798.91;4918633;29;20460;-63
2023/07/10 02:45:40;;;;;;;8.05;3.33;;;;;;;27.52;45.21;101800.19;4935949;28;20032;-63
2023/07/10 02:48:06;;;;;;;9.10;3.72;;;;;;;27.49;44.90;101792.34;4934889;28;20054;-63
2023/07/10 02:50:31;;;;;;;8.75;3.13;;;;;;;27.47;45.09;101786.22;4918669;29;20055;-62
2023/07/10 02:52:56;;;;;;;12.45;4.30;;;;;;;27.44;45.99;101793.00;4934549;28;20055;-62
2023/07/10 02:55:22;;;;;;;7.80;3.08;;;;;;;27.41;45.46;101800.84;4935895;28;20118;-62
2023/07/10 02:57:47;;;;;;;6.97;3.45;;;;;;;27.41;45.72;101798.94;4934396;28;20043;-62
2023/07/10 03:00:13;;;;;;;7.60;3.78;;;;;;;27.42;45.55;101805.28;4934456;28;20384;-62
2023/07/10 03:02:39;;;;;;;11.70;3.75;;;;;;;27.40;45.76;101796.38;4934415;28;20511;-63
2023/07/10 03:05:05;;;;;;;8.18;3.17;;;;;;;27.40;46.22;101796.38;4935013;28;20042;-63
2023/07/10 03:07:31;;;;;;;10.85;3.85;;;;;;;27.37;46.01;101788.53;4936051;28;20032;-63
2023/07/10 03:09:56;;;;;;;5.47;3.13;;;;;;;27.36;46.00;101782.19;4935102;28;20110;-62
2023/07/10 03:12:22;;;;;;;9.35;3.75;;;;;;;27.35;46.33;101782.41;4933794;28;20537;-63
2023/07/10 03:14:48;;;;;;;8.45;3.00;;;;;;;27.33;45.80;101788.13;4918520;28;20059;-62
2023/07/10 03:17:14;;;;;;;10.25;4.07;;;;;;;27.32;46.38;101783.69;4918252;29;20587;-62
2023/07/10 03:19:39;;;;;;;8.82;4.03;;;;;;;27.29;45.97;101795.13;4918413;29;20067;-63
2023/07/10 03:22:05;;;;;;;9.43;3.85;;;;;;;27.29;45.30;101805.28;4918420;29;20111;-62
2023/07/10 03:24:31;;;;;;;7.43;3.90;;;;;;;27.29;45.50;101810.78;4918460;29;20035;-63
2023/07/10 03:26:57;;;;;;;7.13;3.42;;;;;;;27.24;45.19;101802.34;4902757;29;20464;-62
2023/07/10 03:29:22;;;;;;;6.43;3.60;;;;;;;27.25;46.06;101809.53;4918360;29;20043;-62
2023/07/10 03:31:48;;;;;;;5.43;3.30;;;;;;;27.21;45.88;101809.13;4918248;29;20036;-62
2023/07/10 03:34:14;;;;;;;12.00;3.55;;;;;;;27.22;45.80;101809.97;4950046;28;20115;-63
2023/07/10 03:36:39;;;;;;;10.45;3.60;;;;;;;27.24;45.76;101819.69;4934195;29;20047;-63
2023/07/10 03:39:05;;;;;;;8.55;3.40;;;;;;;27.24;45.84;101818.84;4934234;29;20042;-62
2023/07/10 03:41:32;;;;;;;12.50;3.60;;;;;;;27.22;45.79;101821.78;4934327;28;20107;-63
2023/07/10 03:43:57;;;;;;;11.45;3.70;;;;;;;27.23;45.98;101811.63;4918048;29;20063;-63
2023/07/10 03:46:23;;;;;;;8.18;3.40;;;;;;;27.25;46.24;101826.06;4935175;28;20028;-62
2023/07/10 03:48:48;;;;;;;8.43;3.50;;;;;;;27.24;46.14;101818.84;4934192;28;20035;-62
2023/07/10 03:51:15;;;;;;;6.93;3.22;;;;;;;27.25;45.67;101823.31;4918152;29;20036;-62
2023/07/10 03:53:40;;;;;;;11.00;4.28;;;;;;;27.24;46.47;101818.84;4918350;29;20036;-63
2023/07/10 03:56:06;;;;;;;9.32;3.72;;;;;;;27.25;46.81;101826.06;4935551;28;20086;-62
2023/07/10 03:58:33;;;;;;;10.70;3.53;;;;;;;27.23;45.56;101828.16;4934629;29;20036;-62
2023/07/10 04:01:00;;;;;;;6.00;3.13;;;;;;;27.23;45.51;101822.66;4934507;29;20036;-62
2023/07/10 04:03:29;;;;;;;7.60;3.90;;;;;;;27.23;46.59;101823.50;4918048;29;20082;-63
2023/07/10 04:05:58;;;;;;;5.85;3.78;;;;;;;27.19;46.54;101825.81;4918490;29;20066;-63
2023/07/10 04:08:27;;;;;;;9.65;3.50;;;;;;;27.25;46.59;101834.31;4934340;29;20036;-63
2023/07/10 04:10:53;;;;;;;5.22;2.97;;;;;;;27.25;46.47;101834.31;4933899;28;20050;-62
2023/07/10 04:13:19;;;;;;;7.07;3.03;;;;;;;27.24;46.79;101838.97;4931614;29;20054;-63
2023/07/10 04:16:01;;;;;;;6.00;3.08;;;;;;;27.25;46.58;101831.56;4937286;28;20044;-63
2023/07/10 04:18:36;;;;;;;6.07;3.15;;;;;;;27.26;45.95;101833.22;4938668;28;20195;-63
2023/07/10 04:21:04;;;;;;;8.13;2.92;;;;;;;27.27;45.61;101835.78;4896299;28;20048;-63
2023/07/10 04:23:30;;;;;;;4.45;2.88;;;;;;;27.29;46.00;101830.06;4921453;28;20110;-62
2023/07/10 04:25:55;;;;;;;6.40;3.35;;;;;;;27.31;46.46;101841.69;4921325;28;20074;-63
2023/07/10 04:28:21;;;;;;;8.05;3.25;;;;;;;27.33;45.67;101836.84;4918156;29;20484;-63
2023/07/10 04:30:47;;;;;;;8.38;3.30;;;;;;;27.34;45.90;101838.50;4912740;28;20484;-63
2023/07/10 04:33:14;;;;;;;4.78;2.92;;;;;;;27.34;46.42;101846.75;4936945;28;20038;-62
2023/07/10 04:35:40;;;;;;;6.55;2.90;;;;;;;27.34;45.71;101849.50;4936825;28;20107;-63
2023/07/10 04:38:08;;;;;;;5.72;3.45;;;;;;;27.35;45.58;101849.31;4921036;28;20039;-62
2023/07/10 04:40:33;;;;;;;4.70;3.05;;;;;;;27.39;46.40;101861.56;4953126;28;20024;-62
2023/07/10 04:43:01;;;;;;;4.82;2.97;;;;;;;27.40;46.07;101849.50;4921052;28;20039;-63
2023/07/10 04:45:26;;;;;;;6.38;2.72;;;;;;;27.43;45.59;101853.78;4938023;28;20024;-63
2023/07/10 04:47:52;;;;;;;6.25;2.70;;;;;;;27.43;45.63;101851.88;4936786;28;20034;-63
2023/07/10 04:50:18;;;;;;;4.45;2.63;;;;;;;27.46;46.07;101848.69;4920958;28;20068;-64
2023/07/10 04:52:43;;;;;;;7.47;2.90;;;;;;;27.49;45.49;101850.16;4936964;28;20023;-65
2023/07/10 04:55:09;;;;;;;4.90;2.60;;;;;;;27.49;45.74;101848.25;4952600;28;20058;-63
2023/07/10 04:57:34;;;;;;;7.40;2.92;;;;;;;27.52;46.12;101853.34;4937752;28;20027;-63
2023/07/10 05:00:00;;;;;;;5.25;2.85;;;;;;;27.58;45.33;101848.88;4936412;28;20050;-63
2023/07/10 05:02:25;;;;;;;8.80;2.83;;;;;;;27.65;46.01;101860.69;4952640;28;20044;-63
2023/07/10 05:04:51;;;;;;;8.23;3.08;;;;;;;27.68;45.67;101854.75;4936370;28;20066;-64
2023/07/10 05:07:16;;;;;;;6.57;2.80;;;;;;;27.74;45.40;101860.25;4919660;28;20575;-64
2023/07/10 05:09:41;;;;;;;6.68;2.40;;;;;;;27.91;45.66;101866.13;4904906;28;20049;-64
2023/07/10 05:12:07;;;;;;;4.22;2.42;;;;;;;27.98;45.27;101875.22;4936182;28;20047;-63
2023/07/10 05:14:32;;;;;;;4.80;2.53;;;;;;;28.01;44.94;101871.16;4936450;28;20039;-63
2023/07/10 05:16:57;;;;;;;6.93;2.55;;;;;;;28.06;45.00;101869.47;4936257;28;20480;-63
2023/07/10 05:19:23;;;;;;;4.53;1.92;;;;;;;28.11;44.72;101883.44;4920571;28;20036;-65
2023/07/10 05:21:48;;;;;;;5.60;1.90;;;;;;;28.18;45.21;101881.53;4936576;28;20491;-64
2023/07/10 05:24:14;;;;;;;4.95;1.77;;;;;;;28.27;44.79;101876.59;4937842;28;20028;-63
2023/07/10 05:26:39;;;;;;;5.70;2.65;;;;;;;28.31;44.71;101884.19;4920372;28;20387;-64
2023/07/10 05:29:04;;;;;;;2.50;1.90;;;;;;;28.41;45.05;101882.88;4904560;28;20126;-63
2023/07/10 05:31:30;;;;;;;5.28;1.80;;;;;;;28.55;44.45;101884.50;4937168;28;20040;-64
2023/07/10 05:33:55;;;;;;;5.30;2.03;;;;;;;28.59;44.29;101885.72;4936380;29;20043;-64
2023/07/10 05:36:21;;;;;;;4.47;2.20;;;;;;;28.74;44.39;101880.78;4920277;29;20039;-63
2023/07/10 05:38:50;;;;;;;3.85;1.38;;;;;;;28.77;44.07;101877.59;4937309;28;20039;-63
2023/07/10 05:41:16;;;;;;;4.22;2.08;;;;;;;28.92;43.88;101886.41;4920571;29;20032;-64
2023/07/10 05:43:42;;;;;;;7.45;2.20;;;;;;;29.12;43.73;101876.00;4935778;29;20054;-64
2023/07/10 05:46:08;;;;;;;4.97;2.00;;;;;;;29.24;42.88;101885.28;4937049;28;20507;-64
2023/07/10 05:48:34;;;;;;;2.85;1.98;;;;;;;29.40;42.49;101884.72;4937129;28;20035;-64
2023/07/10 05:50:59;;;;;;;6.82;1.98;;;;;;;29.49;42.52;101881.66;4919829;29;20035;-63
2023/07/10 05:53:25;;;;;;;7.28;1.92;;;;;;;29.59;42.37;101882.00;4935753;28;20135;-63
2023/07/10 05:55:53;;;;;;;4.38;1.60;;;;;;;29.75;42.30;101884.13;4919989;29;20052;-63
2023/07/10 05:58:20;;;;;;;5.30;1.88;;;;;;;29.79;42.09;101888.09;4935405;29;20040;-62
2023/07/10 06:00:47;;;;;;;2.22;1.55;;;;;;;30.00;41.72;101891.31;4919943;29;20407;-63
2023/07/10 06:03:12;;;;;;;3.17;1.35;;;;;;;30.17;41.26;101891.53;4919634;29;20136;-62
2023/07/10 06:05:38;;;;;;;6.10;1.75;;;;;;;30.16;41.38;101889.81;4935434;28;20078;-63
2023/07/10 06:08:03;;;;;;;4.72;1.20;;;;;;;30.12;41.20;101896.91;4936648;28;20035;-64
2023/07/10 06:10:29;;;;;;;3.78;1.80;;;;;;;30.35;41.05;101897.00;4935144;29;20039;-64
2023/07/10 06:12:54;;;;;;;4.05;1.30;;;;;;;30.52;40.60;101894.47;4934918;28;20043;-66
2023/07/10 06:15:19;;;;;;;5.03;1.30;;;;;;;30.71;40.08;101903.56;4919253;28;20047;-63
2023/07/10 06:17:45;;;;;;;7.13;2.45;;;;;;;30.84;40.03;101898.66;4935191;28;20067;-66
2023/07/10 06:20:11;;;;;;;6.72;1.70;;;;;;;31.03;40.18;101902.22;4918918;29;20052;-66
2023/07/10 06:22:36;;;;;;;4.30;1.60;;;;;;;31.21;40.25;101899.38;4919222;29;20032;-66
2023/07/10 06:25:02;;;;;;;10.73;2.10;;;;;;;31.36;39.73;101902.50;4936171;28;20500;-66
2023/07/10 06:27:27;;;;;;;4.25;1.17;;;;;;;31.52;39.32;101907.34;4935113;28;20031;-66
2023/07/10 06:29:53;;;;;;;2.78;1.38;;;;;;;31.68;39.27;101916.88;4934782;29;20035;-67
2023/07/10 06:32:19;;;;;;;4.68;1.73;;;;;;;31.83;38.94;101913.59;4918759;29;20036;-65
2023/07/10 06:34:45;;;;;;;4.15;1.60;;;;;;;31.96;38.33;101903.09;4919001;29;20115;-65
2023/07/10 06:37:10;;;;;;;2.92;1.17;;;;;;;32.08;38.32;101911.38;4934515;28;20102;-66
2023/07/10 06:39:35;;;;;;;2.78;1.35;;;;;;;32.24;37.91;101905.94;4936082;28;20063;-64
2023/07/10 06:42:01;;;;;;;2.78;1.48;;;;;;;32.39;38.44;101901.75;4919162;29;20404;-65
2023/07/10 06:44:26;;;;;;;4.82;1.27;;;;;;;32.52;37.93;101902.31;4919013;29;20163;-65
2023/07/10 06:46:51;;;;;;;7.22;2.47;;;;;;;32.66;37.86;101902.91;4935049;28;20063;-65
2023/07/10 06:49:17;;;;;;;9.70;1.60;;;;;;;32.79;37.25;101908.13;4935272;28;20530;-65
2023/07/10 06:51:42;;;;;;;1.80;1.23;;;;;;;32.91;36.44;101910.84;4934781;28;20038;-66
2023/07/10 06:54:08;;;;;;;4.40;1.20;;;;;;;33.03;36.53;101904.09;4918705;29;20080;-65
2023/07/10 06:56:33;;;;;;;1.30;0.85;;;;;;;33.15;36.72;101913.22;4934822;29;20047;-65
2023/07/10 06:58:59;;;;;;;4.60;1.40;;;;;;;33.31;35.62;101917.09;4934414;29;20032;-65
2023/07/10 07:01:24;;;;;;;4.43;1.40;;;;;;;33.38;35.69;101913.06;4918760;29;20047;-65
2023/07/10 07:03:50;;;;;;;5.55;1.20;;;;;;;33.51;36.66;101917.41;4934735;29;20040;-65
2023/07/10 07:06:15;;;;;;;1.27;1.02;;;;;;;33.62;35.94;101905.38;4934788;29;20028;-65
2023/07/10 07:08:44;;;;;;;4.47;1.00;;;;;;;33.74;35.94;101911.69;4918695;29;20081;-65
2023/07/10 07:11:10;;;;;;;5.93;1.08;;;;;;;33.85;35.29;101916.28;4946073;28;20032;-65
2023/07/10 07:13:35;;;;;;;6.13;1.00;;;;;;;33.98;34.67;101920.63;4918594;29;20467;-66
2023/07/10 07:16:00;;;;;;;7.53;1.00;;;;;;;34.10;34.46;101914.97;4931175;28;20043;-64
2023/07/10 07:18:26;;;;;;;2.47;0.70;;;;;;;34.22;34.81;101915.69;4946869;28;20035;-64
2023/07/10 07:20:51;;;;;;;5.97;1.23;;;;;;;34.34;34.24;101920.00;4935792;28;20076;-64
2023/07/10 07:23:17;;;;;;;2.88;0.65;;;;;;;34.49;34.33;101927.69;4935703;28;20055;-64
2023/07/10 07:25:42;;;;;;;1.85;0.80;;;;;;;34.64;33.75;101919.56;4934126;29;20035;-65
2023/07/10 07:28:08;;;;;;;1.45;0.93;;;;;;;34.78;33.24;101922.75;4918249;29;20036;-64
2023/07/10 07:30:33;;;;;;;3.95;0.98;;;;;;;34.93;33.09;101926.50;4918161;29;20047;-65
2023/07/10 07:33:00;;;;;;;3.60;0.70;;;;;;;35.06;32.89;101919.69;4933997;29;20035;-64
2023/07/10 07:35:25;;;;;;;3.08;0.88;;;;;;;35.23;32.78;101927.94;4950096;28;20036;-65
2023/07/10 07:37:51;;;;;;;2.10;0.70;;;;;;;35.34;32.28;101929.69;4935529;28;20047;-66
2023/07/10 07:40:17;;;;;;;5.65;0.90;;;;;;;35.45;32.38;101921.13;4934552;29;20411;-64
2023/07/10 07:42:46;;;;;;;2.22;0.98;;;;;;;35.58;32.08;101922.63;4918088;29;20040;-64
2023/07/10 07:45:13;;;;;;;5.22;1.17;;;;;;;35.71;31.54;101916.56;4950046;28;20578;-64
2023/07/10 07:47:40;;;;;;;3.63;0.98;;;;;;;35.87;31.32;101923.94;4934653;29;20124;-65
2023/07/10 07:50:07;;;;;;;2.10;0.77;;;;;;;36.00;31.33;101925.38;4937914;29;20036;-65
2023/07/10 07:52:33;;;;;;;1.55;0.85;;;;;;;36.16;31.12;101938.31;4937813;29;20056;-65
2023/07/10 07:54:58;;;;;;;2.13;0.80;;;;;;;36.22;30.85;101915.75;4937936;29;20055;-65
2023/07/10 07:57:23;;;;;;;3.05;1.42;;;;;;;36.33;30.81;101930.56;4937679;29;20036;-64
2023/07/10 07:59:50;;;;;;;2.38;0.68;;;;;;;36.45;30.24;101933.97;4921752;29;20063;-64
2023/07/10 08:02:15;;;;;;;2.25;0.70;;;;;;;36.57;30.20;101930.97;4921908;29;20563;-65
2023/07/10 08:04:41;;;;;;;4.28;1.73;;;;;;;36.69;30.75;101928.75;4937725;29;20130;-65
2023/07/10 08:07:07;;;;;;;5.20;0.88;;;;;;;36.78;29.92;101921.50;4922108;29;20462;-64
2023/07/10 08:09:33;;;;;;;1.35;0.60;;;;;;;36.82;29.71;101911.47;4937878;29;20062;-65
2023/07/10 08:11:58;;;;;;;2.58;1.25;;;;;;;36.93;29.92;101913.16;4937885;29;20076;-65
2023/07/10 08:14:24;;;;;;;1.13;0.80;;;;;;;37.03;29.92;101918.78;4938752;28;20515;-65
2023/07/10 08:16:49;;;;;;;1.23;0.65;;;;;;;37.11;29.29;101921.00;4921850;29;20045;-65
2023/07/10 08:19:14;;;;;;;2.38;1.70;;;;;;;37.20;29.15;101919.34;4930210;29;20119;-64
2023/07/10 08:21:40;;;;;;;2.38;1.55;;;;;;;37.30;29.13;101916.50;4902679;29;20037;-65
2023/07/10 08:24:05;;;;;;;2.13;0.55;;;;;;;37.43;29.69;101931.09;4934609;28;20036;-65
2023/07/10 08:26:31;;;;;;;3.03;0.73;;;;;;;37.57;28.66;101915.41;4920042;29;20124;-65
2023/07/10 08:28:56;;;;;;;3.25;0.95;;;;;;;37.66;29.15;101916.50;4918705;29;20091;-65
2023/07/10 08:31:24;;;;;;;2.00;0.50;;;;;;;37.75;28.89;101912.81;4901590;29;20127;-65
2023/07/10 08:33:49;;;;;;;2.47;1.10;;;;;;;37.87;28.07;101912.50;4902245;29;20036;-65
2023/07/10 08:36:15;;;;;;;2.50;1.00;;;;;;;38.00;28.54;101909.13;4918023;29;20036;-65
2023/07/10 08:38:40;;;;;;;2.55;0.70;;;;;;;38.14;27.97;101899.00;4919363;29;20041;-65
2023/07/10 08:41:18;;;;;;;2.40;0.90;;;;;;;38.28;27.93;101897.25;4919631;29;20500;-65
2023/07/10 08:43:44;;;;;;;1.73;0.65;;;;;;;38.36;27.77;101896.66;4902328;29;20040;-64
2023/07/10 08:46:13;;;;;;;4.43;0.88;;;;;;;38.45;27.62;101894.94;4918127;29;20530;-65
2023/07/10 08:48:46;;;;;;;3.38;0.73;;;;;;;38.52;27.71;101879.78;4917871;29;20044;-63
2023/07/10 08:51:20;;;;;;;2.97;1.13;;;;;;;38.68;27.89;101901.78;4901925;29;20038;-64
2023/07/10 08:54:01;;;;;;;2.60;0.90;;;;;;;38.78;27.64;101906.53;4917822;29;20043;-66
2023/07/10 08:56:32;;;;;;;2.17;1.05;;;;;;;38.87;27.46;101910.38;4902050;29;20096;-64
2023/07/10 08:59:07;;;;;;;6.15;1.20;;;;;;;38.90;27.38;101904.19;4936059;28;20040;-63
2023/07/10 09:01:39;;;;;;;3.10;1.02;;;;;;;38.97;27.04;101904.69;4952610;28;20023;-65
2023/07/10 09:04:05;;;;;;;3.60;0.90;;;;;;;38.94;27.17;101900.53;4936794;28;20333;-64
2023/07/10 09:06:46;;;;;;;2.97;0.85;;;;;;;38.93;26.28;101892.38;4920737;28;20118;-63
2023/07/10 09:09:32;;;;;;;2.88;0.88;;;;;;;38.94;26.61;101891.25;4930666;28;20049;-64
2023/07/10 09:12:02;;;;;;;2.28;0.80;;;;;;;38.97;26.67;101887.88;4938311;28;20411;-62
2023/07/10 09:14:41;;;;;;;4.47;1.10;;;;;;;39.05;27.21;101901.25;4936516;28;20503;-64
2023/07/10 09:17:43;;;;;;;2.78;1.05;;;;;;;39.15;27.00;101894.72;4936734;28;20514;-63
2023/07/10 09:20:12;;;;;;;;;;;;;;;39.35;26.64;101883.34;4902833;29;20047;-65
2023/07/10 09:23:09;;;;;;;5.88;0.95;;;;;;;39.38;26.55;101894.81;4905686;29;19915;-65
2023/07/10 09:25:36;;;;;;;2.85;0.88;;;;;;;39.57;26.76;101894.88;4918414;29;20151;-67
2023/07/10 09:28:02;;;;;;;2.60;0.73;;;;;;;39.67;26.60;101897.63;4932923;28;20087;-69
2023/07/10 09:30:30;;;;;;;4.63;0.93;;;;;;;39.76;25.70;101900.63;4917443;29;20395;-71
2023/07/10 09:33:00;;;;;;;3.25;0.63;;;;;;;39.77;26.24;101899.47;4917269;29;20396;-70
2023/07/10 09:35:26;;;;;;;4.35;1.88;;;;;;;39.76;25.80;101895.00;4917956;29;20032;-72
2023/07/10 09:37:51;;;;;;;3.05;1.13;;;;;;;39.86;25.50;101894.88;4917319;29;20032;-73
2023/07/10 09:40:31;;;;;;;4.72;1.15;;;;;;;39.94;25.85;101882.97;4933368;29;20056;-68
2023/07/10 09:43:05;;;;;;;1.63;0.77;;;;;;;40.03;25.63;101883.97;4918051;29;20040;-67
2023/07/10 09:45:41;;;;;;;1.67;0.88;;;;;;;40.08;25.39;101884.78;4901470;29;20039;-69
2023/07/10 09:48:13;;;;;;;3.80;0.70;;;;;;;40.10;25.36;101876.88;4932802;29;20091;-67
2023/07/10 09:50:38;;;;;;;3.33;1.27;;;;;;;40.18;25.17;101880.97;4916809;29;20036;-65
2023/07/10 09:53:04;;;;;;;1.55;0.80;;;;;;;40.21;24.99;101886.00;4901149;29;20079;-65
2023/07/10 09:55:29;;;;;;;3.15;0.75;;;;;;;40.24;25.25;101885.41;4918343;29;20076;-65
2023/07/10 09:58:00;;;;;;;1.58;1.00;;;;;;;40.37;25.62;101879.03;4901139;29;20584;-66
2023/07/10 10:00:26;;;;;;;0.73;0.68;;;;;;;40.52;25.25;101890.06;4917479;29;20060;-67
2023/07/10 10:03:08;;;;;;;2.22;0.68;;;;;;;40.85;24.79;101878.88;4933491;29;20047;-70
2023/07/10 10:05:39;;;;;;;9.60;8.70;;;;;;;41.33;24.14;101880.31;4924675;29;20047;-70
2023/07/10 10:08:15;;;;;;;49.13;46.92;;;;;;;42.03;24.21;101874.44;4916930;29;20047;-65
2023/07/10 10:10:41;;;;;;;41.45;38.92;;;;;;;42.88;23.33;101878.06;4916854;29;20080;-63
2023/07/10 10:13:24;;;;;;;4.85;0.98;;;;;;;44.02;22.68;101873.56;4917247;29;20044;-69
2023/07/10 10:16:03;;;;;;;1.58;1.10;;;;;;;45.22;21.65;101881.25;4916853;29;20048;-71
2023/07/10 10:18:32;;;;;;;3.47;1.13;;;;;;;45.74;21.26;101885.59;4918271;29;20100;-77
2023/07/10 10:20:58;;;;;;;0.77;0.55;;;;;;;44.84;21.93;101873.47;4917496;29;20043;-73
2023/07/10 10:23:33;;;;;;;2.05;1.05;;;;;;;44.24;21.93;101878.28;4918175;29;20096;-73
2023/07/10 10:26:30;;;;;;;3.40;1.15;;;;;;;44.04;21.96;101874.06;4942820;28;20047;-70
2023/07/10 10:29:15;;;;;;;5.30;1.17;;;;;;;43.86;22.22;101873.19;4949542;28;20066;-68
2023/07/10 10:31:54;;;;;;;6.45;1.25;;;;;;;43.33;22.53;101861.94;4947976;28;20057;-68
2023/07/10 10:34:28;;;;;;;2.42;1.00;;;;;;;42.78;22.83;101855.78;4938946;29;20036;-74
2023/07/10 10:37:03;;;;;;;1.80;1.70;;;;;;;42.72;23.10;101854.22;4940620;28;20110;-69
2023/07/10 10:39:37;;;;;;;1.58;0.90;;;;;;;42.68;22.79;101856.03;4938819;29;20036;-71
2023/07/10 10:42:26;;;;;;;2.40;0.57;;;;;;;41.77;23.46;101869.34;4956546;28;20040;-69
2023/07/10 10:44:56;;;;;;;2.58;1.77;;;;;;;41.73;23.43;101868.31;4951624;28;20043;-70
2023/07/10 10:48:00;;;;;;;3.95;1.10;;;;;;;41.69;23.27;101872.84;4937238;29;20047;-70
2023/07/10 10:50:55;;;;;;;2.58;1.80;;;;;;;42.25;23.09;101866.06;4899944;28;20977;-70
2023/07/10 10:53:40;;;;;;;2.85;1.70;;;;;;;42.75;21.98;101859.22;4934909;29;20419;-62
2023/07/10 10:56:14;;;;;;;3.38;1.58;;;;;;;42.20;22.68;101850.13;4950652;28;20035;-63
2023/07/10 10:59:12;;;;;;;2.47;1.52;;;;;;;42.40;23.19;101859.25;4936558;28;20087;-64
2023/07/10 11:01:44;;;;;;;2.92;1.48;;;;;;;42.59;22.77;101863.59;4936321;29;20445;-67
2023/07/10 11:04:20;;;;;;;3.03;1.77;;;;;;;43.09;22.49;101860.66;4937990;29;20090;-65
2023/07/10 11:06:57;;;;;;;1.58;1.15;;;;;;;43.41;22.10;101860.38;4938538;28;20058;-61
2023/07/10 11:09:29;;;;;;;2.10;1.60;;;;;;;43.77;21.37;101865.84;4937465;29;20036;-64
2023/07/10 11:11:57;;;;;;;3.75;1.38;;;;;;;43.34;22.05;101858.00;4938142;28;20064;-63
2023/07/10 11:14:22;;;;;;;1.67;0.80;;;;;;;43.77;21.44;101875.16;4938665;28;20027;-64
2023/07/10 11:16:48;;;;;;;4.13;1.00;;;;;;;43.95;21.92;101873.19;4938192;28;20055;-63
2023/07/10 11:19:21;;;;;;;0.93;0.85;;;;;;;44.17;21.65;101861.00;4938253;28;20054;-63
2023/07/10 11:21:47;;;;;;;4.30;0.90;;;;;;;43.65;21.42;101872.09;4940206;28;20179;-63
2023/07/10 11:24:15;;;;;;;1.70;0.70;;;;;;;43.97;21.41;101868.06;4935867;28;20170;-63
2023/07/10 11:26:40;;;;;;;3.17;1.17;;;;;;;43.57;21.87;101870.06;4938972;28;21178;-63
2023/07/10 11:29:30;;;;;;;2.08;1.20;;;;;;;42.87;22.30;101865.13;4936957;28;20043;-63
2023/07/10 11:31:58;;;;;;;3.95;0.90;;;;;;;42.09;22.38;101864.72;4937874;29;20075;-62